Valley Falls, KS

11:53 AM CDT on July 01, 2015 (GMT -0500)
NE of Hoyt | | Change Station
CLOSE
Current Station
Personal Weather Station
Location: Hoyt, KS
Elevation: 1135 ft
Nearby Weather Stations

Elev 1135 ft 39.28 °N, 95.73 °W | Updated 30 seconds ago

Partly Cloudy
Partly Cloudy
82.0 °F
Feels Like 88 °F
N
4.2
Wind Variable Wind from South

Today
High -- | Low -- °F
--% Chance of Precip.
Yesterday
High -- | Low -- °F
Precip. -- in
5:58 AM 8:52 PM
Full, 100% visible
Pressure 29.78 in
Visibility 10.0 miles
Clouds Clear
Heat Index 88 °F
Dew Point 73 °F
Humidity 75%
Rainfall 0.01 in
Snow Depth Not available.
UV 8 out of 12
Pollen 1.10 out of 12
Air Quality Not available.
Flu Activity Not available.
METAR KTOP 011553Z 17012G20KT 10SM CLR 27/22 A2981 RMK AO2 RAB10E18 SLP083 P0000 T02720217

More Conditions Fewer Conditions

Pressure 29.78 in
Visibility 10.0 miles
Clouds Clear
Heat Index 88 °F
Dew Point 73 °F
Humidity 75%
Rainfall 0.01 in
Snow Depth Not available.
UV 8 out of 12
Pollen 1.10 out of 12
Air Quality Not available.
Flu Activity Not available.
METAR KTOP 011553Z 17012G20KT 10SM CLR 27/22 A2981 RMK AO2 RAB10E18 SLP083 P0000 T02720217

More Conditions Fewer Conditions

10-Day Weather Forecast

×

Almanac

Astronomy

Jul. 01, 2015 Rise Set
Actual Time
Civil Twilight
Nautical Twilight
Astronomical Twilight
Moon
Length of Visible Light
Length of Day
Tomorrow will be .
, % of the Moon is Illuminated

Today's Extremes

State Highs State Lows

Community

WunderPhotos

Upload Photos

1,834,240 photos uploaded!

WunderBlogs® & News

Nearby

Air Quality

  Air Quality AQ Index Pollutant
Not available.

Snow Depth

Station Depth Elevation

Earthquake Activity

City Distance Mag. Time & Date
Minimum magnitude displayed is 2.5.

Coastal Water Temperatures

Place Temperature

Stations

Nearby Weather Stations

Station Location Temp. Windchill Dew Point Humidity Wind Precip. Elev Updated Type